Charny, Canada
Current Conditions -  °F | °C
As of 3:00 AM on Friday 19 Dec 2014 (Local Time) from CYQB Reporting Station
Broken Clouds Broken Clouds  
Wind Chill: 17°   Ceiling: 8200
Heat Index: 25°   Visibility: 15mi
Dew Point: 18°   Wind: 7mph
Humidity: 74%   Direction: 280°W
Pressure: 29.86"   Gusts: NA
Location:  46.72°N, 71.27°W
Report Text: CYQB 190800Z 28006KT 15SM FEW063 BKN082 M04/M08 A2986 RMK SC2AC3 SLP116
Loading
Personal Weather Stations






























Interactive Weather Map New forecast layout! Learn more

10-Day Weather Forecast

Advertisements
Track Severe Weather on mobile